Terminal Aerodrome Forecast
Issued by NWS Milwaukee/Sullivan, WI

Current Version | Previous Version | Text Only | Print | Product List | Glossary On
Versions: 1 2 3 4 5 6 7 8 9 10 11 12 13 14 15 16 17 18 19 20
000
FTUS43 KMKX 182030 AAA
TAFMKE
TAF AMD
KMKE 182030Z 1821/1924 20014G22KT P6SM FEW250
     FM190000 21009KT P6SM FEW250 WS020/22040KT
     FM190700 24007KT P6SM FEW250 WS020/27030KT
     FM190800 26006KT P6SM FEW250
     FM191200 29007KT P6SM FEW250
     FM191900 26006KT P6SM SKC
     FM192000 21006KT P6SM SKC
     FM192200 18006KT P6SM SKC=

USA.gov is the U.S. government's official web portal to all federal, state and local government web resources and services.